sensor_id;sensor_type;location;lat;lon;timestamp;temperature;humidity
20442;DHT22;10380;52.102;20.614;2023-07-02T00:00:06;18.30;99.90
20442;DHT22;10380;52.102;20.614;2023-07-02T00:02:34;18.30;99.90
20442;DHT22;10380;52.102;20.614;2023-07-02T00:05:01;18.30;99.90
20442;DHT22;10380;52.102;20.614;2023-07-02T00:07:28;18.20;99.90
20442;DHT22;10380;52.102;20.614;2023-07-02T00:09:55;18.20;99.90
20442;DHT22;10380;52.102;20.614;2023-07-02T00:12:22;18.20;99.90
20442;DHT22;10380;52.102;20.614;2023-07-02T00:14:50;18.10;99.90
20442;DHT22;10380;52.102;20.614;2023-07-02T00:17:20;18.10;99.90
20442;DHT22;10380;52.102;20.614;2023-07-02T00:19:48;18.00;99.90
20442;DHT22;10380;52.102;20.614;2023-07-02T00:22:19;18.00;99.90
20442;DHT22;10380;52.102;20.614;2023-07-02T00:24:47;18.00;99.90
20442;DHT22;10380;52.102;20.614;2023-07-02T00:27:14;17.90;99.90
20442;DHT22;10380;52.102;20.614;2023-07-02T00:29:41;17.90;99.90
20442;DHT22;10380;52.102;20.614;2023-07-02T00:32:07;17.90;99.90
20442;DHT22;10380;52.102;20.614;2023-07-02T00:34:34;17.80;99.90
20442;DHT22;10380;52.102;20.614;2023-07-02T00:37:01;17.90;99.90
20442;DHT22;10380;52.102;20.614;2023-07-02T00:39:28;17.80;99.90
20442;DHT22;10380;52.102;20.614;2023-07-02T00:42:00;17.80;99.90
20442;DHT22;10380;52.102;20.614;2023-07-02T00:44:28;17.80;99.90
20442;DHT22;10380;52.102;20.614;2023-07-02T00:46:55;17.70;99.90
20442;DHT22;10380;52.102;20.614;2023-07-02T00:49:22;17.70;99.90
20442;DHT22;10380;52.102;20.614;2023-07-02T00:51:50;17.70;99.90
20442;DHT22;10380;52.102;20.614;2023-07-02T00:54:18;17.70;99.90
20442;DHT22;10380;52.102;20.614;2023-07-02T00:56:45;17.70;99.90
20442;DHT22;10380;52.102;20.614;2023-07-02T00:59:12;17.70;99.90
20442;DHT22;10380;52.102;20.614;2023-07-02T01:01:39;17.60;99.90
20442;DHT22;10380;52.102;20.614;2023-07-02T01:04:07;17.70;99.90
20442;DHT22;10380;52.102;20.614;2023-07-02T01:06:39;17.70;99.90
20442;DHT22;10380;52.102;20.614;2023-07-02T01:09:08;17.60;99.90
20442;DHT22;10380;52.102;20.614;2023-07-02T01:11:46;17.70;99.90
20442;DHT22;10380;52.102;20.614;2023-07-02T01:14:18;17.60;99.90
20442;DHT22;10380;52.102;20.614;2023-07-02T01:16:47;17.70;99.90
20442;DHT22;10380;52.102;20.614;2023-07-02T01:19:19;17.70;99.90
20442;DHT22;10380;52.102;20.614;2023-07-02T01:21:47;17.70;99.90
20442;DHT22;10380;52.102;20.614;2023-07-02T01:24:16;17.70;99.90
20442;DHT22;10380;52.102;20.614;2023-07-02T01:26:43;17.70;99.90
20442;DHT22;10380;52.102;20.614;2023-07-02T01:29:20;17.60;99.90
20442;DHT22;10380;52.102;20.614;2023-07-02T01:31:47;17.70;99.90
20442;DHT22;10380;52.102;20.614;2023-07-02T01:34:15;17.70;99.90
20442;DHT22;10380;52.102;20.614;2023-07-02T01:36:42;17.60;99.90
20442;DHT22;10380;52.102;20.614;2023-07-02T01:39:09;17.70;99.90
20442;DHT22;10380;52.102;20.614;2023-07-02T01:41:54;17.70;99.90
20442;DHT22;10380;52.102;20.614;2023-07-02T01:44:22;17.60;99.90
20442;DHT22;10380;52.102;20.614;2023-07-02T01:46:49;17.70;99.90
20442;DHT22;10380;52.102;20.614;2023-07-02T01:49:17;17.70;99.90
20442;DHT22;10380;52.102;20.614;2023-07-02T01:51:55;17.70;99.90
20442;DHT22;10380;52.102;20.614;2023-07-02T01:54:23;17.70;99.90
20442;DHT22;10380;52.102;20.614;2023-07-02T01:56:50;17.80;99.90
20442;DHT22;10380;52.102;20.614;2023-07-02T01:59:17;17.80;99.90
20442;DHT22;10380;52.102;20.614;2023-07-02T02:01:44;17.80;99.90
20442;DHT22;10380;52.102;20.614;2023-07-02T02:04:11;17.90;99.90
20442;DHT22;10380;52.102;20.614;2023-07-02T02:06:39;17.90;99.90
20442;DHT22;10380;52.102;20.614;2023-07-02T02:09:07;17.90;99.90
20442;DHT22;10380;52.102;20.614;2023-07-02T02:11:39;17.90;99.90
20442;DHT22;10380;52.102;20.614;2023-07-02T02:14:08;17.90;99.90
20442;DHT22;10380;52.102;20.614;2023-07-02T02:16:34;17.90;99.90
20442;DHT22;10380;52.102;20.614;2023-07-02T02:19:02;18.00;99.90
20442;DHT22;10380;52.102;20.614;2023-07-02T02:21:29;18.00;99.90
20442;DHT22;10380;52.102;20.614;2023-07-02T02:23:56;18.00;99.90
20442;DHT22;10380;52.102;20.614;2023-07-02T02:26:24;18.00;99.90
20442;DHT22;10380;52.102;20.614;2023-07-02T02:28:52;18.00;99.90
20442;DHT22;10380;52.102;20.614;2023-07-02T02:31:19;18.00;99.90
20442;DHT22;10380;52.102;20.614;2023-07-02T02:33:46;18.00;99.90
20442;DHT22;10380;52.102;20.614;2023-07-02T02:36:13;17.90;99.90
20442;DHT22;10380;52.102;20.614;2023-07-02T02:38:40;17.90;99.90
20442;DHT22;10380;52.102;20.614;2023-07-02T02:41:07;17.90;99.90
20442;DHT22;10380;52.102;20.614;2023-07-02T02:43:35;17.80;99.90
20442;DHT22;10380;52.102;20.614;2023-07-02T02:46:02;17.90;99.90
20442;DHT22;10380;52.102;20.614;2023-07-02T02:48:29;17.80;99.90
20442;DHT22;10380;52.102;20.614;2023-07-02T02:50:56;17.90;99.90
20442;DHT22;10380;52.102;20.614;2023-07-02T02:53:23;17.90;99.90
20442;DHT22;10380;52.102;20.614;2023-07-02T02:55:50;18.00;99.90
20442;DHT22;10380;52.102;20.614;2023-07-02T02:58:16;18.00;99.90
20442;DHT22;10380;52.102;20.614;2023-07-02T03:00:43;18.10;99.90
20442;DHT22;10380;52.102;20.614;2023-07-02T03:03:12;18.10;99.90
20442;DHT22;10380;52.102;20.614;2023-07-02T03:05:40;18.10;99.90
20442;DHT22;10380;52.102;20.614;2023-07-02T03:08:08;18.20;99.90
20442;DHT22;10380;52.102;20.614;2023-07-02T03:10:35;18.20;99.90
20442;DHT22;10380;52.102;20.614;2023-07-02T03:13:02;18.20;99.90
20442;DHT22;10380;52.102;20.614;2023-07-02T03:15:29;18.30;99.90
20442;DHT22;10380;52.102;20.614;2023-07-02T03:17:56;18.40;99.90
20442;DHT22;10380;52.102;20.614;2023-07-02T03:20:24;18.40;99.90
20442;DHT22;10380;52.102;20.614;2023-07-02T03:22:51;18.40;99.90
20442;DHT22;10380;52.102;20.614;2023-07-02T03:25:18;18.50;99.90
20442;DHT22;10380;52.102;20.614;2023-07-02T03:27:44;18.50;99.90
20442;DHT22;10380;52.102;20.614;2023-07-02T03:30:12;18.50;99.90
20442;DHT22;10380;52.102;20.614;2023-07-02T03:32:39;18.60;99.90
20442;DHT22;10380;52.102;20.614;2023-07-02T03:35:06;18.60;99.90
20442;DHT22;10380;52.102;20.614;2023-07-02T03:37:33;18.60;99.90
20442;DHT22;10380;52.102;20.614;2023-07-02T03:40:00;18.60;99.90
20442;DHT22;10380;52.102;20.614;2023-07-02T03:42:27;18.70;99.90
20442;DHT22;10380;52.102;20.614;2023-07-02T03:44:54;18.70;99.90
20442;DHT22;10380;52.102;20.614;2023-07-02T03:47:20;18.70;99.90
20442;DHT22;10380;52.102;20.614;2023-07-02T03:49:48;18.80;99.90
20442;DHT22;10380;52.102;20.614;2023-07-02T03:52:15;18.80;99.90
20442;DHT22;10380;52.102;20.614;2023-07-02T03:54:41;18.80;99.90
20442;DHT22;10380;52.102;20.614;2023-07-02T03:57:08;18.90;99.90
20442;DHT22;10380;52.102;20.614;2023-07-02T03:59:35;18.90;99.90
20442;DHT22;10380;52.102;20.614;2023-07-02T04:02:04;18.90;99.90
20442;DHT22;10380;52.102;20.614;2023-07-02T04:04:31;19.00;99.90
20442;DHT22;10380;52.102;20.614;2023-07-02T04:06:58;19.00;99.90
20442;DHT22;10380;52.102;20.614;2023-07-02T04:09:25;19.00;99.90
20442;DHT22;10380;52.102;20.614;2023-07-02T04:11:51;19.10;99.90
20442;DHT22;10380;52.102;20.614;2023-07-02T04:14:18;19.10;99.90
20442;DHT22;10380;52.102;20.614;2023-07-02T04:16:45;19.10;99.90
20442;DHT22;10380;52.102;20.614;2023-07-02T04:19:12;19.10;99.90
20442;DHT22;10380;52.102;20.614;2023-07-02T04:21:40;19.20;99.90
20442;DHT22;10380;52.102;20.614;2023-07-02T04:24:07;19.20;99.90
20442;DHT22;10380;52.102;20.614;2023-07-02T04:26:34;19.20;99.90
20442;DHT22;10380;52.102;20.614;2023-07-02T04:29:23;19.30;99.90
20442;DHT22;10380;52.102;20.614;2023-07-02T04:31:50;19.30;99.90
20442;DHT22;10380;52.102;20.614;2023-07-02T04:34:17;19.30;99.90
20442;DHT22;10380;52.102;20.614;2023-07-02T04:36:44;19.30;99.90
20442;DHT22;10380;52.102;20.614;2023-07-02T04:39:10;19.40;99.90
20442;DHT22;10380;52.102;20.614;2023-07-02T04:41:37;19.30;99.90
20442;DHT22;10380;52.102;20.614;2023-07-02T04:44:04;19.40;99.90
20442;DHT22;10380;52.102;20.614;2023-07-02T04:46:31;19.40;99.90
20442;DHT22;10380;52.102;20.614;2023-07-02T04:48:58;19.40;99.90
20442;DHT22;10380;52.102;20.614;2023-07-02T04:51:25;19.50;99.90
20442;DHT22;10380;52.102;20.614;2023-07-02T04:53:52;19.50;99.90
20442;DHT22;10380;52.102;20.614;2023-07-02T04:56:19;19.60;99.90
20442;DHT22;10380;52.102;20.614;2023-07-02T04:58:46;19.60;99.90
20442;DHT22;10380;52.102;20.614;2023-07-02T05:01:13;19.60;99.90
20442;DHT22;10380;52.102;20.614;2023-07-02T05:03:40;19.60;99.90
20442;DHT22;10380;52.102;20.614;2023-07-02T05:06:08;19.60;99.90
20442;DHT22;10380;52.102;20.614;2023-07-02T05:08:34;19.70;99.90
20442;DHT22;10380;52.102;20.614;2023-07-02T05:11:03;19.70;99.90
20442;DHT22;10380;52.102;20.614;2023-07-02T05:13:30;19.80;99.90
20442;DHT22;10380;52.102;20.614;2023-07-02T05:15:57;19.80;99.90
20442;DHT22;10380;52.102;20.614;2023-07-02T05:18:24;19.90;99.90
20442;DHT22;10380;52.102;20.614;2023-07-02T05:20:51;19.90;99.90
20442;DHT22;10380;52.102;20.614;2023-07-02T05:23:18;19.90;99.90
20442;DHT22;10380;52.102;20.614;2023-07-02T05:25:45;20.00;99.90
20442;DHT22;10380;52.102;20.614;2023-07-02T05:28:12;20.00;99.90
20442;DHT22;10380;52.102;20.614;2023-07-02T05:30:39;20.10;99.90
20442;DHT22;10380;52.102;20.614;2023-07-02T05:33:08;20.10;99.90
20442;DHT22;10380;52.102;20.614;2023-07-02T05:35:34;20.20;99.90
20442;DHT22;10380;52.102;20.614;2023-07-02T05:38:01;20.30;99.90
20442;DHT22;10380;52.102;20.614;2023-07-02T05:40:28;20.30;99.90
20442;DHT22;10380;52.102;20.614;2023-07-02T05:42:55;20.40;99.90
20442;DHT22;10380;52.102;20.614;2023-07-02T05:45:23;20.40;99.90
20442;DHT22;10380;52.102;20.614;2023-07-02T05:47:50;20.40;99.90
20442;DHT22;10380;52.102;20.614;2023-07-02T05:50:17;20.40;99.90
20442;DHT22;10380;52.102;20.614;2023-07-02T05:52:44;20.40;99.90
20442;DHT22;10380;52.102;20.614;2023-07-02T05:55:11;20.50;99.90
20442;DHT22;10380;52.102;20.614;2023-07-02T05:57:38;20.50;99.90
20442;DHT22;10380;52.102;20.614;2023-07-02T06:00:06;20.60;99.90
20442;DHT22;10380;52.102;20.614;2023-07-02T06:02:33;20.60;99.90
20442;DHT22;10380;52.102;20.614;2023-07-02T06:05:00;20.60;99.90
20442;DHT22;10380;52.102;20.614;2023-07-02T06:07:28;20.70;99.90
20442;DHT22;10380;52.102;20.614;2023-07-02T06:09:55;20.70;99.90
20442;DHT22;10380;52.102;20.614;2023-07-02T06:12:22;20.70;99.90
20442;DHT22;10380;52.102;20.614;2023-07-02T06:14:49;20.70;99.90
20442;DHT22;10380;52.102;20.614;2023-07-02T06:17:17;20.80;99.90
20442;DHT22;10380;52.102;20.614;2023-07-02T06:19:44;20.90;99.90
20442;DHT22;10380;52.102;20.614;2023-07-02T06:22:11;21.00;99.90
20442;DHT22;10380;52.102;20.614;2023-07-02T06:24:38;21.20;99.90
20442;DHT22;10380;52.102;20.614;2023-07-02T06:27:05;21.20;99.90
20442;DHT22;10380;52.102;20.614;2023-07-02T06:29:32;21.20;99.90
20442;DHT22;10380;52.102;20.614;2023-07-02T06:31:59;21.30;99.90
20442;DHT22;10380;52.102;20.614;2023-07-02T06:34:26;21.30;99.90
20442;DHT22;10380;52.102;20.614;2023-07-02T06:36:53;21.30;99.90
20442;DHT22;10380;52.102;20.614;2023-07-02T06:39:20;21.30;99.90
20442;DHT22;10380;52.102;20.614;2023-07-02T06:41:47;21.30;99.90
20442;DHT22;10380;52.102;20.614;2023-07-02T06:44:14;21.40;99.90
20442;DHT22;10380;52.102;20.614;2023-07-02T06:46:42;21.40;99.90
20442;DHT22;10380;52.102;20.614;2023-07-02T06:49:09;21.40;99.90
20442;DHT22;10380;52.102;20.614;2023-07-02T06:51:36;21.40;99.90
20442;DHT22;10380;52.102;20.614;2023-07-02T06:54:03;21.40;99.90
20442;DHT22;10380;52.102;20.614;2023-07-02T06:56:30;21.40;99.90
20442;DHT22;10380;52.102;20.614;2023-07-02T06:58:58;21.40;99.90
20442;DHT22;10380;52.102;20.614;2023-07-02T07:01:25;21.40;99.90
20442;DHT22;10380;52.102;20.614;2023-07-02T07:03:52;21.30;99.90
20442;DHT22;10380;52.102;20.614;2023-07-02T07:06:19;21.10;99.90
20442;DHT22;10380;52.102;20.614;2023-07-02T07:08:47;21.10;99.90
20442;DHT22;10380;52.102;20.614;2023-07-02T07:11:14;21.10;99.90
20442;DHT22;10380;52.102;20.614;2023-07-02T07:13:41;21.10;99.90
20442;DHT22;10380;52.102;20.614;2023-07-02T07:16:11;21.20;99.90
20442;DHT22;10380;52.102;20.614;2023-07-02T07:18:38;21.20;99.90
20442;DHT22;10380;52.102;20.614;2023-07-02T07:21:05;21.20;99.90
20442;DHT22;10380;52.102;20.614;2023-07-02T07:23:32;21.20;99.90
20442;DHT22;10380;52.102;20.614;2023-07-02T07:25:59;21.30;99.90
20442;DHT22;10380;52.102;20.614;2023-07-02T07:28:26;21.30;99.90
20442;DHT22;10380;52.102;20.614;2023-07-02T07:30:53;21.20;99.90
20442;DHT22;10380;52.102;20.614;2023-07-02T07:33:20;21.10;99.90
20442;DHT22;10380;52.102;20.614;2023-07-02T07:35:46;21.00;99.90
20442;DHT22;10380;52.102;20.614;2023-07-02T07:38:14;21.00;99.90
20442;DHT22;10380;52.102;20.614;2023-07-02T07:40:44;20.90;99.90
20442;DHT22;10380;52.102;20.614;2023-07-02T07:43:12;20.90;99.90
20442;DHT22;10380;52.102;20.614;2023-07-02T07:45:39;21.00;99.90
20442;DHT22;10380;52.102;20.614;2023-07-02T07:48:06;21.00;99.90
20442;DHT22;10380;52.102;20.614;2023-07-02T07:50:33;21.00;99.90
20442;DHT22;10380;52.102;20.614;2023-07-02T07:53:00;21.20;99.90
20442;DHT22;10380;52.102;20.614;2023-07-02T07:55:27;21.30;99.90
20442;DHT22;10380;52.102;20.614;2023-07-02T07:57:54;21.50;99.90
20442;DHT22;10380;52.102;20.614;2023-07-02T08:00:21;21.70;99.90
20442;DHT22;10380;52.102;20.614;2023-07-02T08:02:48;21.90;99.90
20442;DHT22;10380;52.102;20.614;2023-07-02T08:05:16;22.10;99.90
20442;DHT22;10380;52.102;20.614;2023-07-02T08:07:43;22.20;99.90
20442;DHT22;10380;52.102;20.614;2023-07-02T08:10:10;22.20;99.90
20442;DHT22;10380;52.102;20.614;2023-07-02T08:12:37;22.20;99.90
20442;DHT22;10380;52.102;20.614;2023-07-02T08:15:05;22.20;99.90
20442;DHT22;10380;52.102;20.614;2023-07-02T08:17:32;22.10;99.90
20442;DHT22;10380;52.102;20.614;2023-07-02T08:19:59;22.10;99.90
20442;DHT22;10380;52.102;20.614;2023-07-02T08:22:27;21.90;99.90
20442;DHT22;10380;52.102;20.614;2023-07-02T08:24:54;21.80;99.90
20442;DHT22;10380;52.102;20.614;2023-07-02T08:27:21;21.70;99.90
20442;DHT22;10380;52.102;20.614;2023-07-02T08:29:49;21.70;99.90
20442;DHT22;10380;52.102;20.614;2023-07-02T08:32:16;21.60;99.90
20442;DHT22;10380;52.102;20.614;2023-07-02T08:34:43;21.60;99.90
20442;DHT22;10380;52.102;20.614;2023-07-02T08:37:10;21.60;99.90
20442;DHT22;10380;52.102;20.614;2023-07-02T08:39:38;21.60;99.90
20442;DHT22;10380;52.102;20.614;2023-07-02T08:42:07;21.60;99.90
20442;DHT22;10380;52.102;20.614;2023-07-02T08:44:34;21.60;99.90
20442;DHT22;10380;52.102;20.614;2023-07-02T08:47:02;21.50;99.90
20442;DHT22;10380;52.102;20.614;2023-07-02T08:49:30;21.40;99.90
20442;DHT22;10380;52.102;20.614;2023-07-02T08:51:57;21.40;99.90
20442;DHT22;10380;52.102;20.614;2023-07-02T08:54:24;21.40;99.90
20442;DHT22;10380;52.102;20.614;2023-07-02T08:56:52;21.40;99.90
20442;DHT22;10380;52.102;20.614;2023-07-02T08:59:18;21.40;99.90
20442;DHT22;10380;52.102;20.614;2023-07-02T09:01:50;21.50;99.90
20442;DHT22;10380;52.102;20.614;2023-07-02T09:04:25;21.60;99.90
20442;DHT22;10380;52.102;20.614;2023-07-02T09:07:09;21.60;99.90
20442;DHT22;10380;52.102;20.614;2023-07-02T09:09:46;21.60;99.90
20442;DHT22;10380;52.102;20.614;2023-07-02T09:12:27;21.80;99.90
20442;DHT22;10380;52.102;20.614;2023-07-02T09:14:58;21.90;99.90
20442;DHT22;10380;52.102;20.614;2023-07-02T09:17:29;22.00;99.90
20442;DHT22;10380;52.102;20.614;2023-07-02T09:19:57;22.10;99.90
20442;DHT22;10380;52.102;20.614;2023-07-02T09:22:25;22.10;99.90
20442;DHT22;10380;52.102;20.614;2023-07-02T09:24:53;22.10;99.90
20442;DHT22;10380;52.102;20.614;2023-07-02T09:27:21;22.00;99.90
20442;DHT22;10380;52.102;20.614;2023-07-02T09:29:52;22.00;99.90
20442;DHT22;10380;52.102;20.614;2023-07-02T09:32:26;22.10;99.90
20442;DHT22;10380;52.102;20.614;2023-07-02T09:34:57;22.20;99.90
20442;DHT22;10380;52.102;20.614;2023-07-02T09:37:25;22.30;99.90
20442;DHT22;10380;52.102;20.614;2023-07-02T09:39:53;22.50;99.90
20442;DHT22;10380;52.102;20.614;2023-07-02T09:42:22;22.60;99.90
20442;DHT22;10380;52.102;20.614;2023-07-02T09:44:52;22.70;99.90
20442;DHT22;10380;52.102;20.614;2023-07-02T09:47:22;22.80;99.90
20442;DHT22;10380;52.102;20.614;2023-07-02T09:50:02;23.00;99.90
20442;DHT22;10380;52.102;20.614;2023-07-02T09:52:30;23.20;99.90
20442;DHT22;10380;52.102;20.614;2023-07-02T09:54:57;23.30;99.90
20442;DHT22;10380;52.102;20.614;2023-07-02T09:57:25;23.40;99.90
20442;DHT22;10380;52.102;20.614;2023-07-02T09:59:53;23.50;99.90
20442;DHT22;10380;52.102;20.614;2023-07-02T10:02:22;23.70;99.90
20442;DHT22;10380;52.102;20.614;2023-07-02T10:04:49;23.80;99.90
20442;DHT22;10380;52.102;20.614;2023-07-02T10:07:29;23.80;99.90
20442;DHT22;10380;52.102;20.614;2023-07-02T10:09:57;23.80;99.90
20442;DHT22;10380;52.102;20.614;2023-07-02T10:12:29;23.90;99.90
20442;DHT22;10380;52.102;20.614;2023-07-02T10:14:58;24.00;99.90
20442;DHT22;10380;52.102;20.614;2023-07-02T10:17:26;24.00;99.90
20442;DHT22;10380;52.102;20.614;2023-07-02T10:19:57;24.10;99.90
20442;DHT22;10380;52.102;20.614;2023-07-02T10:22:25;24.20;99.90
20442;DHT22;10380;52.102;20.614;2023-07-02T10:24:56;24.30;99.90
20442;DHT22;10380;52.102;20.614;2023-07-02T10:27:42;24.40;99.90
20442;DHT22;10380;52.102;20.614;2023-07-02T10:30:10;24.50;99.90
20442;DHT22;10380;52.102;20.614;2023-07-02T10:32:39;24.60;99.90
20442;DHT22;10380;52.102;20.614;2023-07-02T10:35:18;24.70;99.90
20442;DHT22;10380;52.102;20.614;2023-07-02T10:37:46;24.80;99.90
20442;DHT22;10380;52.102;20.614;2023-07-02T10:40:13;24.90;99.90
20442;DHT22;10380;52.102;20.614;2023-07-02T10:42:50;24.90;99.90
20442;DHT22;10380;52.102;20.614;2023-07-02T10:45:30;25.00;99.90
20442;DHT22;10380;52.102;20.614;2023-07-02T10:47:57;25.00;99.90
20442;DHT22;10380;52.102;20.614;2023-07-02T10:50:24;25.10;99.90
20442;DHT22;10380;52.102;20.614;2023-07-02T10:52:55;25.10;99.90
20442;DHT22;10380;52.102;20.614;2023-07-02T10:55:23;25.10;99.90
20442;DHT22;10380;52.102;20.614;2023-07-02T10:58:06;25.00;99.90
20442;DHT22;10380;52.102;20.614;2023-07-02T11:00:42;25.00;99.90
20442;DHT22;10380;52.102;20.614;2023-07-02T11:03:16;25.00;99.90
20442;DHT22;10380;52.102;20.614;2023-07-02T11:05:45;24.90;99.90
20442;DHT22;10380;52.102;20.614;2023-07-02T11:08:13;24.90;99.90
20442;DHT22;10380;52.102;20.614;2023-07-02T11:10:41;24.90;99.90
20442;DHT22;10380;52.102;20.614;2023-07-02T11:13:15;24.80;99.90
20442;DHT22;10380;52.102;20.614;2023-07-02T11:15:43;24.60;99.90
20442;DHT22;10380;52.102;20.614;2023-07-02T11:18:14;24.40;99.90
20442;DHT22;10380;52.102;20.614;2023-07-02T11:20:44;24.20;99.90
20442;DHT22;10380;52.102;20.614;2023-07-02T11:23:23;24.10;99.90
20442;DHT22;10380;52.102;20.614;2023-07-02T11:25:57;24.10;99.90
20442;DHT22;10380;52.102;20.614;2023-07-02T11:28:25;24.20;99.90
20442;DHT22;10380;52.102;20.614;2023-07-02T11:30:52;24.30;99.90
20442;DHT22;10380;52.102;20.614;2023-07-02T11:33:31;24.50;99.90
20442;DHT22;10380;52.102;20.614;2023-07-02T11:35:58;24.70;99.90
20442;DHT22;10380;52.102;20.614;2023-07-02T11:38:26;25.00;99.90
20442;DHT22;10380;52.102;20.614;2023-07-02T11:40:53;25.20;99.90
20442;DHT22;10380;52.102;20.614;2023-07-02T11:43:20;25.40;99.90
20442;DHT22;10380;52.102;20.614;2023-07-02T11:45:47;25.60;99.90
20442;DHT22;10380;52.102;20.614;2023-07-02T11:48:14;25.70;99.90
20442;DHT22;10380;52.102;20.614;2023-07-02T11:50:41;25.70;99.90
20442;DHT22;10380;52.102;20.614;2023-07-02T11:53:08;25.70;99.90
20442;DHT22;10380;52.102;20.614;2023-07-02T11:55:36;25.60;99.90
20442;DHT22;10380;52.102;20.614;2023-07-02T11:58:04;25.50;99.90
20442;DHT22;10380;52.102;20.614;2023-07-02T12:00:31;25.30;99.90
20442;DHT22;10380;52.102;20.614;2023-07-02T12:02:57;25.20;99.90
20442;DHT22;10380;52.102;20.614;2023-07-02T12:05:25;25.10;99.90
20442;DHT22;10380;52.102;20.614;2023-07-02T12:07:51;25.10;99.90
20442;DHT22;10380;52.102;20.614;2023-07-02T12:10:19;25.20;99.90
20442;DHT22;10380;52.102;20.614;2023-07-02T12:12:46;25.90;99.90
20442;DHT22;10380;52.102;20.614;2023-07-02T12:15:13;26.70;99.90
20442;DHT22;10380;52.102;20.614;2023-07-02T12:17:40;27.20;99.90
20442;DHT22;10380;52.102;20.614;2023-07-02T12:20:07;27.40;99.90
20442;DHT22;10380;52.102;20.614;2023-07-02T12:22:34;27.40;99.90
20442;DHT22;10380;52.102;20.614;2023-07-02T12:25:01;27.20;99.90
20442;DHT22;10380;52.102;20.614;2023-07-02T12:27:28;27.00;99.90
20442;DHT22;10380;52.102;20.614;2023-07-02T12:29:56;26.70;99.90
20442;DHT22;10380;52.102;20.614;2023-07-02T12:32:23;26.50;99.90
20442;DHT22;10380;52.102;20.614;2023-07-02T12:34:50;26.40;99.90
20442;DHT22;10380;52.102;20.614;2023-07-02T12:37:17;26.30;99.90
20442;DHT22;10380;52.102;20.614;2023-07-02T12:39:44;26.50;99.90
20442;DHT22;10380;52.102;20.614;2023-07-02T12:42:11;27.00;99.90
20442;DHT22;10380;52.102;20.614;2023-07-02T12:44:38;27.90;99.90
20442;DHT22;10380;52.102;20.614;2023-07-02T12:47:06;29.00;99.90
20442;DHT22;10380;52.102;20.614;2023-07-02T12:49:33;29.90;99.90
20442;DHT22;10380;52.102;20.614;2023-07-02T12:51:59;30.80;99.90
20442;DHT22;10380;52.102;20.614;2023-07-02T12:54:26;31.30;99.90
20442;DHT22;10380;52.102;20.614;2023-07-02T12:56:54;31.40;99.90
20442;DHT22;10380;52.102;20.614;2023-07-02T12:59:21;30.60;98.30
20442;DHT22;10380;52.102;20.614;2023-07-02T13:01:48;30.10;98.70
20442;DHT22;10380;52.102;20.614;2023-07-02T13:04:15;29.40;99.00
20442;DHT22;10380;52.102;20.614;2023-07-02T13:06:42;28.70;98.70
20442;DHT22;10380;52.102;20.614;2023-07-02T13:09:11;27.90;98.30
20442;DHT22;10380;52.102;20.614;2023-07-02T13:11:38;27.30;98.40
20442;DHT22;10380;52.102;20.614;2023-07-02T13:14:05;26.70;98.50
20442;DHT22;10380;52.102;20.614;2023-07-02T13:16:32;26.30;98.80
20442;DHT22;10380;52.102;20.614;2023-07-02T13:18:59;25.90;99.40
20442;DHT22;10380;52.102;20.614;2023-07-02T13:21:29;25.70;99.80
20442;DHT22;10380;52.102;20.614;2023-07-02T13:23:56;25.50;99.90
20442;DHT22;10380;52.102;20.614;2023-07-02T13:26:23;25.20;99.90
20442;DHT22;10380;52.102;20.614;2023-07-02T13:28:50;25.10;99.90
20442;DHT22;10380;52.102;20.614;2023-07-02T13:31:17;25.00;99.90
20442;DHT22;10380;52.102;20.614;2023-07-02T13:33:44;24.80;99.90
20442;DHT22;10380;52.102;20.614;2023-07-02T13:36:12;24.70;99.90
20442;DHT22;10380;52.102;20.614;2023-07-02T13:38:39;24.60;99.90
20442;DHT22;10380;52.102;20.614;2023-07-02T13:41:06;24.40;99.90
20442;DHT22;10380;52.102;20.614;2023-07-02T13:43:34;24.40;99.90
20442;DHT22;10380;52.102;20.614;2023-07-02T13:46:02;24.50;99.90
20442;DHT22;10380;52.102;20.614;2023-07-02T13:48:29;24.50;99.90
20442;DHT22;10380;52.102;20.614;2023-07-02T13:50:56;24.50;99.90
20442;DHT22;10380;52.102;20.614;2023-07-02T13:53:22;24.50;99.90
20442;DHT22;10380;52.102;20.614;2023-07-02T13:55:49;24.40;99.90
20442;DHT22;10380;52.102;20.614;2023-07-02T13:58:17;24.50;99.90
20442;DHT22;10380;52.102;20.614;2023-07-02T14:00:55;24.60;99.90
20442;DHT22;10380;52.102;20.614;2023-07-02T14:03:22;24.70;99.90
20442;DHT22;10380;52.102;20.614;2023-07-02T14:05:50;24.80;99.90
20442;DHT22;10380;52.102;20.614;2023-07-02T14:08:17;24.90;99.90
20442;DHT22;10380;52.102;20.614;2023-07-02T14:10:44;24.90;99.90
20442;DHT22;10380;52.102;20.614;2023-07-02T14:13:11;24.80;99.90
20442;DHT22;10380;52.102;20.614;2023-07-02T14:15:38;24.80;99.90
20442;DHT22;10380;52.102;20.614;2023-07-02T14:18:05;24.70;99.90
20442;DHT22;10380;52.102;20.614;2023-07-02T14:20:32;24.50;99.90
20442;DHT22;10380;52.102;20.614;2023-07-02T14:22:59;24.40;99.90
20442;DHT22;10380;52.102;20.614;2023-07-02T14:25:26;24.40;99.90
20442;DHT22;10380;52.102;20.614;2023-07-02T14:28:07;24.40;99.90
20442;DHT22;10380;52.102;20.614;2023-07-02T14:30:34;24.30;99.90
20442;DHT22;10380;52.102;20.614;2023-07-02T14:33:01;24.40;99.90
20442;DHT22;10380;52.102;20.614;2023-07-02T14:35:30;24.40;99.90
20442;DHT22;10380;52.102;20.614;2023-07-02T14:37:58;24.50;99.90
20442;DHT22;10380;52.102;20.614;2023-07-02T14:40:25;24.60;99.90
20442;DHT22;10380;52.102;20.614;2023-07-02T14:42:52;24.60;99.90
20442;DHT22;10380;52.102;20.614;2023-07-02T14:45:19;24.80;99.90
20442;DHT22;10380;52.102;20.614;2023-07-02T14:47:46;24.80;99.90
20442;DHT22;10380;52.102;20.614;2023-07-02T14:50:13;25.00;99.90
20442;DHT22;10380;52.102;20.614;2023-07-02T14:52:43;25.20;99.90
20442;DHT22;10380;52.102;20.614;2023-07-02T14:55:09;25.50;99.90
20442;DHT22;10380;52.102;20.614;2023-07-02T14:57:36;25.90;99.90
20442;DHT22;10380;52.102;20.614;2023-07-02T15:00:04;26.40;99.90
20442;DHT22;10380;52.102;20.614;2023-07-02T15:02:31;26.70;99.90
20442;DHT22;10380;52.102;20.614;2023-07-02T15:04:58;26.90;99.90
20442;DHT22;10380;52.102;20.614;2023-07-02T15:07:26;26.90;99.90
20442;DHT22;10380;52.102;20.614;2023-07-02T15:09:53;26.80;99.90
20442;DHT22;10380;52.102;20.614;2023-07-02T15:12:20;26.70;99.90
20442;DHT22;10380;52.102;20.614;2023-07-02T15:14:47;26.70;99.90
20442;DHT22;10380;52.102;20.614;2023-07-02T15:17:14;26.50;99.90
20442;DHT22;10380;52.102;20.614;2023-07-02T15:19:41;26.40;99.90